N1202R KCHS-KORL
Flight info
| Callsign | N1202R |
|---|---|
| Flight time | 1h 34m |
| Altitude | 18000 |
| Route | LGRHD3 GIPPL Q85 LPERD TTHOR3 |
| Aircraft | B58T/L-SDFGRY/C |
Departure
| Time | 2026-05-04 23:46 |
|---|---|
| Airport | Charleston International Airport (KCHS) |
Arrival
| Time | 2026-05-05 01:20 |
|---|---|
| Airport | Orlando Executive Airport (KORL) |
| Time | Latitude | Longitude | Altitude | Speed | Heading |
|---|---|---|---|---|---|
| 2026-05-04 23:26 | 32.89888 | -80.03280 | 35 ft | 0 kts | 149° |
| 2026-05-04 23:31 | 32.89887 | -80.03280 | 35 ft | 0 kts | 149° |
| 2026-05-04 23:40 | 32.89878 | -80.03294 | 35 ft | 6 kts | 279° |
| 2026-05-04 23:41 | 32.89891 | -80.03361 | 35 ft | 10 kts | 268° |
| 2026-05-04 23:41 | 32.89849 | -80.03441 | 35 ft | 13 kts | 236° |
| 2026-05-04 23:41 | 32.89852 | -80.03506 | 35 ft | 9 kts | 323° |
| 2026-05-04 23:41 | 32.89913 | -80.03553 | 35 ft | 11 kts | 331° |
| 2026-05-04 23:42 | 32.89993 | -80.03533 | 35 ft | 13 kts | 24° |
| 2026-05-04 23:42 | 32.90083 | -80.03484 | 35 ft | 15 kts | 25° |
| 2026-05-04 23:42 | 32.90176 | -80.03499 | 35 ft | 17 kts | 289° |
| 2026-05-04 23:42 | 32.90216 | -80.03623 | 37 ft | 16 kts | 302° |
| 2026-05-04 23:43 | 32.90301 | -80.03724 | 36 ft | 19 kts | 319° |
| 2026-05-04 23:43 | 32.90399 | -80.03832 | 35 ft | 19 kts | 324° |
| 2026-05-04 23:43 | 32.90502 | -80.03938 | 35 ft | 20 kts | 317° |
| 2026-05-04 23:43 | 32.90612 | -80.04056 | 35 ft | 22 kts | 317° |
| 2026-05-04 23:44 | 32.90730 | -80.04183 | 35 ft | 23 kts | 319° |
| 2026-05-04 23:44 | 32.90822 | -80.04302 | 35 ft | 11 kts | 292° |
| 2026-05-04 23:44 | 32.90825 | -80.04311 | 35 ft | 0 kts | 292° |
| 2026-05-04 23:45 | 32.90831 | -80.04329 | 35 ft | 9 kts | 288° |
| 2026-05-04 23:45 | 32.90832 | -80.04438 | 36 ft | 11 kts | 238° |
| 2026-05-04 23:45 | 32.90775 | -80.04412 | 35 ft | 38 kts | 148° |
| 2026-05-04 23:45 | 32.90313 | -80.04060 | 88 ft | 106 kts | 149° |
| 2026-05-04 23:46 | 32.89665 | -80.03553 | 526 ft | 112 kts | 148° |
| 2026-05-04 23:46 | 32.89011 | -80.03022 | 965 ft | 117 kts | 146° |
| 2026-05-04 23:46 | 32.88345 | -80.02418 | 1337 ft | 123 kts | 149° |
| 2026-05-04 23:46 | 32.87537 | -80.02327 | 1714 ft | 123 kts | 199° |
| 2026-05-04 23:47 | 32.86807 | -80.02886 | 2127 ft | 127 kts | 213° |
| 2026-05-04 23:47 | 32.86097 | -80.03512 | 2556 ft | 127 kts | 213° |
| 2026-05-04 23:47 | 32.85380 | -80.04159 | 2985 ft | 131 kts | 214° |
| 2026-05-04 23:47 | 32.84640 | -80.04828 | 3413 ft | 136 kts | 215° |
| 2026-05-04 23:48 | 32.83880 | -80.05515 | 3782 ft | 138 kts | 214° |
| 2026-05-04 23:48 | 32.83119 | -80.06210 | 4195 ft | 138 kts | 216° |
| 2026-05-04 23:48 | 32.82362 | -80.06910 | 4585 ft | 137 kts | 217° |
| 2026-05-04 23:48 | 32.81607 | -80.07591 | 4989 ft | 137 kts | 217° |
| 2026-05-04 23:49 | 32.80845 | -80.08282 | 5364 ft | 139 kts | 217° |
| 2026-05-04 23:49 | 32.80068 | -80.08983 | 5742 ft | 141 kts | 216° |
| 2026-05-04 23:49 | 32.79275 | -80.09701 | 6125 ft | 146 kts | 215° |
| 2026-05-04 23:49 | 32.78448 | -80.10442 | 6484 ft | 151 kts | 215° |
| 2026-05-04 23:50 | 32.77600 | -80.11205 | 6846 ft | 155 kts | 214° |
| 2026-05-04 23:50 | 32.76743 | -80.11981 | 7182 ft | 155 kts | 215° |
| 2026-05-04 23:50 | 32.75886 | -80.12758 | 7533 ft | 155 kts | 215° |
| 2026-05-04 23:50 | 32.75021 | -80.13530 | 7903 ft | 156 kts | 215° |
| 2026-05-04 23:51 | 32.74159 | -80.14311 | 8285 ft | 157 kts | 216° |
| 2026-05-04 23:51 | 32.73302 | -80.15094 | 8651 ft | 158 kts | 216° |
| 2026-05-04 23:51 | 32.72426 | -80.15882 | 9025 ft | 158 kts | 216° |
| 2026-05-04 23:51 | 32.71548 | -80.16670 | 9402 ft | 158 kts | 216° |
| 2026-05-04 23:52 | 32.70671 | -80.17459 | 9783 ft | 158 kts | 216° |
| 2026-05-04 23:52 | 32.69794 | -80.18248 | 10155 ft | 158 kts | 217° |
| 2026-05-04 23:52 | 32.68918 | -80.19036 | 10504 ft | 158 kts | 217° |
| 2026-05-04 23:52 | 32.68046 | -80.19820 | 10870 ft | 158 kts | 218° |
| 2026-05-04 23:53 | 32.67172 | -80.20610 | 11235 ft | 158 kts | 219° |
| 2026-05-04 23:53 | 32.66297 | -80.21398 | 11599 ft | 157 kts | 219° |
| 2026-05-04 23:53 | 32.65418 | -80.22184 | 11947 ft | 159 kts | 220° |
| 2026-05-04 23:53 | 32.64532 | -80.22981 | 12301 ft | 161 kts | 220° |
| 2026-05-04 23:54 | 32.63640 | -80.23785 | 12650 ft | 161 kts | 221° |
| 2026-05-04 23:54 | 32.62742 | -80.24591 | 13005 ft | 162 kts | 221° |
| 2026-05-04 23:54 | 32.61844 | -80.25400 | 13364 ft | 162 kts | 221° |
| 2026-05-04 23:54 | 32.60946 | -80.26208 | 13732 ft | 162 kts | 221° |
| 2026-05-04 23:55 | 32.60043 | -80.27019 | 14076 ft | 163 kts | 221° |
| 2026-05-04 23:55 | 32.59139 | -80.27831 | 14403 ft | 163 kts | 221° |
| 2026-05-04 23:55 | 32.57241 | -80.29327 | 15063 ft | 164 kts | 217° |
| 2026-05-04 23:56 | 32.56268 | -80.30053 | 15427 ft | 167 kts | 217° |
| 2026-05-04 23:56 | 32.55281 | -80.30789 | 15778 ft | 168 kts | 217° |
| 2026-05-04 23:56 | 32.54283 | -80.31530 | 16129 ft | 170 kts | 217° |
| 2026-05-04 23:56 | 32.53277 | -80.32277 | 16482 ft | 171 kts | 217° |
| 2026-05-04 23:57 | 32.52271 | -80.33024 | 16859 ft | 170 kts | 217° |
| 2026-05-04 23:57 | 32.51270 | -80.33766 | 17226 ft | 169 kts | 217° |
| 2026-05-04 23:57 | 32.50280 | -80.34501 | 17606 ft | 167 kts | 217° |
| 2026-05-04 23:57 | 32.49293 | -80.35232 | 17953 ft | 170 kts | 218° |
| 2026-05-04 23:58 | 32.48242 | -80.36021 | 17980 ft | 186 kts | 217° |
| 2026-05-04 23:58 | 32.47136 | -80.36848 | 18001 ft | 194 kts | 217° |
| 2026-05-04 23:58 | 32.45992 | -80.37696 | 18065 ft | 198 kts | 217° |
| 2026-05-04 23:58 | 32.44808 | -80.38572 | 18091 ft | 203 kts | 217° |
| 2026-05-04 23:59 | 32.43599 | -80.39467 | 18104 ft | 207 kts | 216° |
| 2026-05-04 23:59 | 32.42367 | -80.40378 | 18114 ft | 210 kts | 216° |
| 2026-05-04 23:59 | 32.41116 | -80.41304 | 18117 ft | 214 kts | 216° |
| 2026-05-04 23:59 | 32.39852 | -80.42240 | 18116 ft | 216 kts | 216° |
| 2026-05-05 00:00 | 32.38572 | -80.43187 | 18121 ft | 218 kts | 216° |
| 2026-05-05 00:00 | 32.38137 | -80.43510 | 18124 ft | 219 kts | 216° |
| 2026-05-05 00:00 | 32.36417 | -80.44780 | 18118 ft | 220 kts | 216° |
| 2026-05-05 00:00 | 32.35115 | -80.45741 | 18111 ft | 220 kts | 216° |
| 2026-05-05 00:01 | 32.33817 | -80.46703 | 18120 ft | 220 kts | 216° |
| 2026-05-05 00:01 | 32.32515 | -80.47663 | 18124 ft | 221 kts | 216° |
| 2026-05-05 00:01 | 32.31211 | -80.48625 | 18126 ft | 221 kts | 216° |
| 2026-05-05 00:01 | 32.29905 | -80.49589 | 18134 ft | 221 kts | 216° |
| 2026-05-05 00:02 | 32.28598 | -80.50554 | 18120 ft | 221 kts | 216° |
| 2026-05-05 00:02 | 32.27295 | -80.51515 | 18122 ft | 221 kts | 216° |
| 2026-05-05 00:02 | 32.25992 | -80.52475 | 18124 ft | 221 kts | 216° |
| 2026-05-05 00:02 | 32.24691 | -80.53434 | 18127 ft | 220 kts | 216° |
| 2026-05-05 00:03 | 32.23391 | -80.54392 | 18128 ft | 220 kts | 216° |
| 2026-05-05 00:03 | 32.22093 | -80.55349 | 18129 ft | 220 kts | 216° |
| 2026-05-05 00:03 | 32.20797 | -80.56303 | 18125 ft | 220 kts | 216° |
| 2026-05-05 00:03 | 32.19500 | -80.57258 | 18131 ft | 220 kts | 216° |
| 2026-05-05 00:04 | 32.18204 | -80.58212 | 18132 ft | 219 kts | 216° |
| 2026-05-05 00:04 | 32.16908 | -80.59165 | 18129 ft | 219 kts | 216° |
| 2026-05-05 00:04 | 32.15613 | -80.60118 | 18128 ft | 219 kts | 216° |
| 2026-05-05 00:04 | 32.14319 | -80.61069 | 18127 ft | 219 kts | 216° |
| 2026-05-05 00:05 | 32.13024 | -80.62021 | 18126 ft | 219 kts | 216° |
| 2026-05-05 00:05 | 32.11729 | -80.62972 | 18128 ft | 219 kts | 216° |
| 2026-05-05 00:05 | 32.10434 | -80.63924 | 18123 ft | 219 kts | 216° |
| 2026-05-05 00:05 | 32.09140 | -80.64874 | 18122 ft | 219 kts | 216° |
| 2026-05-05 00:06 | 32.07843 | -80.65826 | 18123 ft | 219 kts | 216° |
| 2026-05-05 00:06 | 32.06549 | -80.66775 | 18121 ft | 219 kts | 215° |
| 2026-05-05 00:06 | 32.05254 | -80.67725 | 18123 ft | 219 kts | 215° |
| 2026-05-05 00:06 | 32.03960 | -80.68673 | 18116 ft | 219 kts | 215° |
| 2026-05-05 00:07 | 32.02666 | -80.69623 | 18114 ft | 219 kts | 215° |
| 2026-05-05 00:07 | 32.01369 | -80.70573 | 18117 ft | 219 kts | 215° |
| 2026-05-05 00:07 | 32.00074 | -80.71521 | 18117 ft | 219 kts | 215° |
| 2026-05-05 00:07 | 31.98779 | -80.72470 | 18113 ft | 219 kts | 215° |
| 2026-05-05 00:08 | 31.97484 | -80.73417 | 18113 ft | 219 kts | 215° |
| 2026-05-05 00:08 | 31.96190 | -80.74364 | 18111 ft | 219 kts | 215° |
| 2026-05-05 00:08 | 31.94895 | -80.75311 | 18111 ft | 219 kts | 215° |
| 2026-05-05 00:08 | 31.93597 | -80.76261 | 18109 ft | 219 kts | 215° |
| 2026-05-05 00:09 | 31.92302 | -80.77207 | 18109 ft | 219 kts | 215° |
| 2026-05-05 00:09 | 31.91003 | -80.78157 | 18107 ft | 219 kts | 215° |
| 2026-05-05 00:09 | 31.89705 | -80.79104 | 18098 ft | 220 kts | 215° |
| 2026-05-05 00:09 | 31.88409 | -80.80051 | 18094 ft | 220 kts | 215° |
| 2026-05-05 00:10 | 31.87110 | -80.80999 | 18096 ft | 220 kts | 215° |
| 2026-05-05 00:10 | 31.85812 | -80.81947 | 18096 ft | 220 kts | 215° |
| 2026-05-05 00:10 | 31.84513 | -80.82894 | 18098 ft | 220 kts | 215° |
| 2026-05-05 00:10 | 31.83215 | -80.83840 | 18098 ft | 220 kts | 215° |
| 2026-05-05 00:11 | 31.81914 | -80.84789 | 18098 ft | 220 kts | 215° |
| 2026-05-05 00:11 | 31.80634 | -80.85722 | 18101 ft | 220 kts | 215° |
| 2026-05-05 00:11 | 31.79335 | -80.86668 | 18103 ft | 220 kts | 215° |
| 2026-05-05 00:11 | 31.78036 | -80.87614 | 18100 ft | 220 kts | 215° |
| 2026-05-05 00:12 | 31.76735 | -80.88562 | 18101 ft | 220 kts | 215° |
| 2026-05-05 00:12 | 31.75438 | -80.89506 | 18103 ft | 220 kts | 215° |
| 2026-05-05 00:12 | 31.74138 | -80.90451 | 18102 ft | 220 kts | 215° |
| 2026-05-05 00:12 | 31.72839 | -80.91396 | 18101 ft | 220 kts | 215° |
| 2026-05-05 00:13 | 31.71539 | -80.92341 | 18102 ft | 220 kts | 215° |
| 2026-05-05 00:13 | 31.70241 | -80.93285 | 18102 ft | 220 kts | 215° |
| 2026-05-05 00:13 | 31.68942 | -80.94229 | 18100 ft | 220 kts | 215° |
| 2026-05-05 00:13 | 31.67642 | -80.95173 | 18106 ft | 220 kts | 215° |
| 2026-05-05 00:14 | 31.66345 | -80.96115 | 18105 ft | 220 kts | 215° |
| 2026-05-05 00:14 | 31.65043 | -80.97059 | 18102 ft | 220 kts | 215° |
| 2026-05-05 00:14 | 31.63744 | -80.98002 | 18099 ft | 219 kts | 215° |
| 2026-05-05 00:14 | 31.62448 | -80.98943 | 18103 ft | 219 kts | 215° |
| 2026-05-05 00:15 | 31.61147 | -80.99886 | 18102 ft | 219 kts | 215° |
| 2026-05-05 00:15 | 31.59849 | -81.00827 | 18097 ft | 219 kts | 214° |
| 2026-05-05 00:15 | 31.58551 | -81.01767 | 18099 ft | 219 kts | 214° |
| 2026-05-05 00:15 | 31.57271 | -81.02695 | 18101 ft | 219 kts | 214° |
| 2026-05-05 00:16 | 31.55957 | -81.03646 | 18101 ft | 219 kts | 214° |
| 2026-05-05 00:16 | 31.54662 | -81.04583 | 18099 ft | 219 kts | 214° |
| 2026-05-05 00:16 | 31.53364 | -81.05523 | 18102 ft | 219 kts | 214° |
| 2026-05-05 00:16 | 31.52069 | -81.06459 | 18100 ft | 219 kts | 214° |
| 2026-05-05 00:17 | 31.50771 | -81.07398 | 18104 ft | 219 kts | 214° |
| 2026-05-05 00:17 | 31.49477 | -81.08335 | 18102 ft | 219 kts | 214° |
| 2026-05-05 00:17 | 31.48180 | -81.09271 | 18103 ft | 219 kts | 214° |
| 2026-05-05 00:17 | 31.46884 | -81.10208 | 18101 ft | 219 kts | 214° |
| 2026-05-05 00:18 | 31.45589 | -81.11143 | 18098 ft | 219 kts | 214° |
| 2026-05-05 00:18 | 31.44294 | -81.12079 | 18105 ft | 219 kts | 214° |
| 2026-05-05 00:18 | 31.43015 | -81.13001 | 18105 ft | 219 kts | 214° |
| 2026-05-05 00:18 | 31.41722 | -81.13934 | 18107 ft | 219 kts | 214° |
| 2026-05-05 00:19 | 31.40424 | -81.14871 | 18108 ft | 218 kts | 214° |
| 2026-05-05 00:19 | 31.39129 | -81.15804 | 18108 ft | 218 kts | 214° |
| 2026-05-05 00:19 | 31.37838 | -81.16734 | 18110 ft | 218 kts | 214° |
| 2026-05-05 00:19 | 31.36511 | -81.17604 | 18108 ft | 219 kts | 210° |
| 2026-05-05 00:20 | 31.35149 | -81.18408 | 18111 ft | 219 kts | 209° |
| 2026-05-05 00:20 | 31.33779 | -81.19193 | 18112 ft | 219 kts | 209° |
| 2026-05-05 00:20 | 31.32408 | -81.19977 | 18112 ft | 219 kts | 209° |
| 2026-05-05 00:20 | 31.31038 | -81.20769 | 18108 ft | 219 kts | 210° |
| 2026-05-05 00:21 | 31.29673 | -81.21564 | 18110 ft | 219 kts | 210° |
| 2026-05-05 00:21 | 31.28312 | -81.22364 | 18111 ft | 219 kts | 210° |
| 2026-05-05 00:21 | 31.26950 | -81.23167 | 18108 ft | 219 kts | 210° |
| 2026-05-05 00:21 | 31.25590 | -81.23972 | 18112 ft | 219 kts | 210° |
| 2026-05-05 00:22 | 31.24228 | -81.24779 | 18109 ft | 219 kts | 210° |
| 2026-05-05 00:22 | 31.22871 | -81.25583 | 18109 ft | 219 kts | 210° |
| 2026-05-05 00:22 | 31.21511 | -81.26388 | 18111 ft | 219 kts | 210° |
| 2026-05-05 00:22 | 31.20153 | -81.27194 | 18109 ft | 219 kts | 210° |
| 2026-05-05 00:23 | 31.18774 | -81.27960 | 18112 ft | 220 kts | 203° |
| 2026-05-05 00:23 | 31.17257 | -81.28265 | 18112 ft | 225 kts | 183° |
| 2026-05-05 00:23 | 31.15687 | -81.28181 | 18110 ft | 226 kts | 182° |
| 2026-05-05 00:23 | 31.14119 | -81.28171 | 18114 ft | 225 kts | 184° |
| 2026-05-05 00:24 | 31.12552 | -81.28187 | 18109 ft | 225 kts | 185° |
| 2026-05-05 00:24 | 31.10987 | -81.28205 | 18111 ft | 225 kts | 185° |
| 2026-05-05 00:24 | 31.09418 | -81.28218 | 18113 ft | 225 kts | 184° |
| 2026-05-05 00:24 | 31.07849 | -81.28225 | 18109 ft | 225 kts | 184° |
| 2026-05-05 00:25 | 31.06293 | -81.28228 | 18112 ft | 226 kts | 184° |
| 2026-05-05 00:25 | 31.04709 | -81.28227 | 18111 ft | 226 kts | 184° |
| 2026-05-05 00:25 | 31.03138 | -81.28225 | 18109 ft | 226 kts | 184° |
| 2026-05-05 00:25 | 31.01567 | -81.28221 | 18111 ft | 226 kts | 184° |
| 2026-05-05 00:26 | 30.99996 | -81.28217 | 18109 ft | 226 kts | 184° |
| 2026-05-05 00:26 | 30.98446 | -81.28213 | 18110 ft | 226 kts | 184° |
| 2026-05-05 00:26 | 30.96873 | -81.28209 | 18111 ft | 226 kts | 184° |
| 2026-05-05 00:26 | 30.95306 | -81.28205 | 18110 ft | 226 kts | 184° |
| 2026-05-05 00:27 | 30.93733 | -81.28201 | 18107 ft | 226 kts | 184° |
| 2026-05-05 00:27 | 30.92165 | -81.28197 | 18106 ft | 226 kts | 184° |
| 2026-05-05 00:27 | 30.90593 | -81.28193 | 18105 ft | 226 kts | 184° |
| 2026-05-05 00:27 | 30.89018 | -81.28189 | 18105 ft | 226 kts | 184° |
| 2026-05-05 00:28 | 30.87445 | -81.28185 | 18106 ft | 226 kts | 185° |
| 2026-05-05 00:28 | 30.85872 | -81.28181 | 18111 ft | 226 kts | 185° |
| 2026-05-05 00:28 | 30.84295 | -81.28177 | 18110 ft | 226 kts | 185° |
| 2026-05-05 00:28 | 30.82721 | -81.28173 | 18110 ft | 226 kts | 185° |
| 2026-05-05 00:29 | 30.81148 | -81.28169 | 18113 ft | 226 kts | 185° |
| 2026-05-05 00:29 | 30.79573 | -81.28165 | 18115 ft | 226 kts | 185° |
| 2026-05-05 00:29 | 30.78001 | -81.28161 | 18115 ft | 226 kts | 185° |
| 2026-05-05 00:29 | 30.76423 | -81.28157 | 18117 ft | 226 kts | 185° |
| 2026-05-05 00:30 | 30.74848 | -81.28153 | 18118 ft | 226 kts | 185° |
| 2026-05-05 00:30 | 30.73275 | -81.28149 | 18118 ft | 226 kts | 185° |
| 2026-05-05 00:30 | 30.71698 | -81.28145 | 18123 ft | 226 kts | 185° |
| 2026-05-05 00:30 | 30.70123 | -81.28141 | 18125 ft | 226 kts | 185° |
| 2026-05-05 00:31 | 30.68549 | -81.28137 | 18119 ft | 226 kts | 185° |
| 2026-05-05 00:31 | 30.67061 | -81.28133 | 18124 ft | 226 kts | 185° |
| 2026-05-05 00:31 | 30.65422 | -81.28129 | 18124 ft | 226 kts | 185° |
| 2026-05-05 00:31 | 30.63848 | -81.28125 | 18121 ft | 226 kts | 185° |
| 2026-05-05 00:32 | 30.62295 | -81.28121 | 18123 ft | 226 kts | 185° |
| 2026-05-05 00:32 | 30.60719 | -81.28117 | 18123 ft | 226 kts | 185° |
| 2026-05-05 00:32 | 30.59125 | -81.28099 | 18123 ft | 227 kts | 184° |
| 2026-05-05 00:32 | 30.57564 | -81.28018 | 18122 ft | 227 kts | 182° |
| 2026-05-05 00:33 | 30.55983 | -81.27922 | 18121 ft | 227 kts | 182° |
| 2026-05-05 00:33 | 30.54403 | -81.27828 | 18123 ft | 227 kts | 182° |
| 2026-05-05 00:33 | 30.52822 | -81.27740 | 18123 ft | 227 kts | 183° |
| 2026-05-05 00:33 | 30.51241 | -81.27655 | 18103 ft | 227 kts | 183° |
| 2026-05-05 00:34 | 30.49663 | -81.27573 | 18104 ft | 227 kts | 183° |
| 2026-05-05 00:34 | 30.48082 | -81.27491 | 18103 ft | 227 kts | 183° |
| 2026-05-05 00:34 | 30.46501 | -81.27410 | 18102 ft | 227 kts | 183° |
| 2026-05-05 00:34 | 30.44919 | -81.27329 | 18101 ft | 228 kts | 183° |
| 2026-05-05 00:35 | 30.43337 | -81.27248 | 18103 ft | 228 kts | 183° |
| 2026-05-05 00:35 | 30.41752 | -81.27167 | 18103 ft | 228 kts | 183° |
| 2026-05-05 00:35 | 30.40166 | -81.27086 | 18056 ft | 230 kts | 184° |
| 2026-05-05 00:35 | 30.38570 | -81.27005 | 18052 ft | 229 kts | 183° |
| 2026-05-05 00:36 | 30.36981 | -81.26923 | 18079 ft | 227 kts | 184° |
| 2026-05-05 00:36 | 30.35407 | -81.26842 | 18101 ft | 227 kts | 184° |
| 2026-05-05 00:36 | 30.33831 | -81.26761 | 18100 ft | 227 kts | 184° |
| 2026-05-05 00:36 | 30.32253 | -81.26681 | 18101 ft | 227 kts | 184° |
| 2026-05-05 00:37 | 30.30674 | -81.26601 | 18100 ft | 227 kts | 184° |
| 2026-05-05 00:37 | 30.29095 | -81.26520 | 18099 ft | 227 kts | 184° |
| 2026-05-05 00:37 | 30.27515 | -81.26439 | 18102 ft | 227 kts | 184° |
| 2026-05-05 00:37 | 30.25933 | -81.26354 | 18102 ft | 228 kts | 183° |
| 2026-05-05 00:38 | 30.24353 | -81.26255 | 18102 ft | 228 kts | 183° |
| 2026-05-05 00:38 | 30.22769 | -81.26154 | 18095 ft | 228 kts | 183° |
| 2026-05-05 00:38 | 30.21185 | -81.26054 | 18103 ft | 228 kts | 183° |
| 2026-05-05 00:38 | 30.19600 | -81.25955 | 18101 ft | 228 kts | 183° |
| 2026-05-05 00:39 | 30.18035 | -81.25858 | 18113 ft | 228 kts | 183° |
| 2026-05-05 00:39 | 30.16451 | -81.25760 | 18105 ft | 228 kts | 183° |
| 2026-05-05 00:39 | 30.14868 | -81.25663 | 18109 ft | 228 kts | 183° |
| 2026-05-05 00:39 | 30.13285 | -81.25565 | 18111 ft | 228 kts | 183° |
| 2026-05-05 00:40 | 30.11704 | -81.25468 | 18118 ft | 228 kts | 183° |
| 2026-05-05 00:40 | 30.10122 | -81.25371 | 18115 ft | 228 kts | 184° |
| 2026-05-05 00:40 | 30.08539 | -81.25274 | 18118 ft | 228 kts | 183° |
| 2026-05-05 00:40 | 30.06956 | -81.25177 | 18116 ft | 228 kts | 184° |
| 2026-05-05 00:41 | 30.05373 | -81.25080 | 18120 ft | 228 kts | 184° |
| 2026-05-05 00:41 | 30.03791 | -81.24983 | 18111 ft | 228 kts | 184° |
| 2026-05-05 00:41 | 30.02184 | -81.24887 | 17867 ft | 233 kts | 183° |
| 2026-05-05 00:41 | 30.00564 | -81.24788 | 17603 ft | 233 kts | 183° |
| 2026-05-05 00:42 | 29.98942 | -81.24688 | 17341 ft | 233 kts | 182° |
| 2026-05-05 00:42 | 29.97320 | -81.24588 | 17065 ft | 234 kts | 182° |
| 2026-05-05 00:42 | 29.95697 | -81.24488 | 16776 ft | 234 kts | 182° |
| 2026-05-05 00:42 | 29.94073 | -81.24388 | 16506 ft | 234 kts | 182° |
| 2026-05-05 00:43 | 29.92451 | -81.24289 | 16229 ft | 233 kts | 182° |
| 2026-05-05 00:43 | 29.90830 | -81.24200 | 15957 ft | 232 kts | 182° |
| 2026-05-05 00:43 | 29.89219 | -81.24144 | 15686 ft | 231 kts | 182° |
| 2026-05-05 00:43 | 29.87612 | -81.24093 | 15420 ft | 231 kts | 182° |
| 2026-05-05 00:44 | 29.86551 | -81.24059 | 15242 ft | 230 kts | 182° |
| 2026-05-05 00:44 | 29.84950 | -81.24004 | 14977 ft | 229 kts | 182° |
| 2026-05-05 00:44 | 29.83358 | -81.23949 | 14713 ft | 229 kts | 181° |
| 2026-05-05 00:44 | 29.81773 | -81.23892 | 14456 ft | 228 kts | 181° |
| 2026-05-05 00:45 | 29.80192 | -81.23835 | 14198 ft | 227 kts | 181° |
| 2026-05-05 00:45 | 29.78619 | -81.23777 | 13940 ft | 226 kts | 181° |
| 2026-05-05 00:45 | 29.77054 | -81.23720 | 13670 ft | 224 kts | 181° |
| 2026-05-05 00:45 | 29.75502 | -81.23664 | 13413 ft | 222 kts | 181° |
| 2026-05-05 00:46 | 29.73464 | -81.23589 | 13069 ft | 221 kts | 181° |
| 2026-05-05 00:46 | 29.72429 | -81.23551 | 12901 ft | 220 kts | 181° |
| 2026-05-05 00:46 | 29.70901 | -81.23495 | 12657 ft | 220 kts | 181° |
| 2026-05-05 00:46 | 29.69375 | -81.23440 | 12405 ft | 219 kts | 181° |
| 2026-05-05 00:47 | 29.67857 | -81.23385 | 12178 ft | 218 kts | 181° |
| 2026-05-05 00:47 | 29.66347 | -81.23330 | 11955 ft | 216 kts | 181° |
| 2026-05-05 00:47 | 29.64847 | -81.23261 | 11744 ft | 214 kts | 180° |
| 2026-05-05 00:47 | 29.63360 | -81.23173 | 11575 ft | 214 kts | 180° |
| 2026-05-05 00:48 | 29.61869 | -81.23086 | 11396 ft | 215 kts | 180° |
| 2026-05-05 00:48 | 29.60378 | -81.22997 | 11230 ft | 214 kts | 180° |
| 2026-05-05 00:48 | 29.58888 | -81.22914 | 11061 ft | 214 kts | 180° |
| 2026-05-05 00:48 | 29.57398 | -81.22831 | 10895 ft | 215 kts | 180° |
| 2026-05-05 00:49 | 29.55908 | -81.22749 | 10726 ft | 214 kts | 180° |
| 2026-05-05 00:49 | 29.54421 | -81.22667 | 10559 ft | 213 kts | 180° |
| 2026-05-05 00:49 | 29.52942 | -81.22584 | 10391 ft | 213 kts | 180° |
| 2026-05-05 00:49 | 29.51462 | -81.22501 | 10227 ft | 213 kts | 180° |
| 2026-05-05 00:50 | 29.49985 | -81.22418 | 10070 ft | 212 kts | 180° |
| 2026-05-05 00:50 | 29.48508 | -81.22338 | 9903 ft | 212 kts | 180° |
| 2026-05-05 00:50 | 29.47033 | -81.22257 | 9723 ft | 212 kts | 180° |
| 2026-05-05 00:50 | 29.45562 | -81.22173 | 9545 ft | 212 kts | 180° |
| 2026-05-05 00:51 | 29.44088 | -81.22095 | 9365 ft | 211 kts | 180° |
| 2026-05-05 00:51 | 29.42629 | -81.22010 | 9210 ft | 209 kts | 180° |
| 2026-05-05 00:51 | 29.41176 | -81.21930 | 9071 ft | 209 kts | 180° |
| 2026-05-05 00:51 | 29.39743 | -81.21852 | 8927 ft | 209 kts | 180° |
| 2026-05-05 00:52 | 29.38269 | -81.21773 | 8772 ft | 209 kts | 180° |
| 2026-05-05 00:52 | 29.36821 | -81.21691 | 8629 ft | 209 kts | 179° |
| 2026-05-05 00:52 | 29.35375 | -81.21619 | 8464 ft | 207 kts | 180° |
| 2026-05-05 00:52 | 29.33937 | -81.21562 | 8306 ft | 206 kts | 180° |
| 2026-05-05 00:53 | 29.32501 | -81.21508 | 8171 ft | 206 kts | 180° |
| 2026-05-05 00:53 | 29.31070 | -81.21451 | 8009 ft | 205 kts | 180° |
| 2026-05-05 00:53 | 29.29646 | -81.21391 | 7860 ft | 204 kts | 180° |
| 2026-05-05 00:53 | 29.28228 | -81.21335 | 7703 ft | 203 kts | 180° |
| 2026-05-05 00:54 | 29.26821 | -81.21276 | 7557 ft | 202 kts | 180° |
| 2026-05-05 00:54 | 29.25413 | -81.21219 | 7436 ft | 203 kts | 180° |
| 2026-05-05 00:54 | 29.24001 | -81.21160 | 7288 ft | 203 kts | 179° |
| 2026-05-05 00:54 | 29.22594 | -81.21065 | 7131 ft | 203 kts | 178° |
| 2026-05-05 00:55 | 29.21185 | -81.20960 | 7047 ft | 201 kts | 178° |
| 2026-05-05 00:55 | 29.19796 | -81.20860 | 7028 ft | 199 kts | 178° |
| 2026-05-05 00:55 | 29.18443 | -81.20762 | 7012 ft | 196 kts | 179° |
| 2026-05-05 00:55 | 29.17091 | -81.20669 | 7009 ft | 194 kts | 179° |
| 2026-05-05 00:56 | 29.15747 | -81.20578 | 7036 ft | 193 kts | 179° |
| 2026-05-05 00:56 | 29.14411 | -81.20488 | 7035 ft | 192 kts | 179° |
| 2026-05-05 00:56 | 29.13074 | -81.20400 | 7048 ft | 193 kts | 179° |
| 2026-05-05 00:56 | 29.11729 | -81.20311 | 6996 ft | 195 kts | 179° |
| 2026-05-05 00:57 | 29.10362 | -81.20259 | 6743 ft | 198 kts | 181° |
| 2026-05-05 00:57 | 29.08981 | -81.20259 | 6455 ft | 198 kts | 182° |
| 2026-05-05 00:57 | 29.07606 | -81.20260 | 6159 ft | 197 kts | 182° |
| 2026-05-05 00:57 | 29.06240 | -81.20256 | 5854 ft | 196 kts | 181° |
| 2026-05-05 00:58 | 29.04882 | -81.20246 | 5550 ft | 194 kts | 182° |
| 2026-05-05 00:58 | 29.03537 | -81.20238 | 5292 ft | 193 kts | 182° |
| 2026-05-05 00:58 | 29.02213 | -81.20365 | 5092 ft | 187 kts | 194° |
| 2026-05-05 00:58 | 29.00971 | -81.20749 | 5066 ft | 183 kts | 197° |
| 2026-05-05 00:59 | 28.99753 | -81.21118 | 5047 ft | 179 kts | 197° |
| 2026-05-05 00:59 | 28.98550 | -81.21475 | 5041 ft | 179 kts | 197° |
| 2026-05-05 00:59 | 28.97332 | -81.21842 | 5052 ft | 183 kts | 197° |
| 2026-05-05 00:59 | 28.96095 | -81.22213 | 5037 ft | 184 kts | 197° |
| 2026-05-05 01:00 | 28.94851 | -81.22588 | 5038 ft | 186 kts | 197° |
| 2026-05-05 01:00 | 28.93590 | -81.22973 | 4933 ft | 191 kts | 197° |
| 2026-05-05 01:00 | 28.92307 | -81.23365 | 4736 ft | 191 kts | 197° |
| 2026-05-05 01:00 | 28.91022 | -81.23752 | 4556 ft | 191 kts | 196° |
| 2026-05-05 01:01 | 28.89735 | -81.24141 | 4376 ft | 191 kts | 195° |
| 2026-05-05 01:01 | 28.88457 | -81.24557 | 4212 ft | 191 kts | 200° |
| 2026-05-05 01:01 | 28.87204 | -81.25020 | 4111 ft | 188 kts | 196° |
| 2026-05-05 01:01 | 28.85946 | -81.25430 | 4072 ft | 189 kts | 195° |
| 2026-05-05 01:02 | 28.84682 | -81.25826 | 4037 ft | 188 kts | 194° |
| 2026-05-05 01:02 | 28.83428 | -81.26218 | 4023 ft | 186 kts | 194° |
| 2026-05-05 01:02 | 28.82183 | -81.26606 | 4021 ft | 185 kts | 194° |
| 2026-05-05 01:02 | 28.80944 | -81.26990 | 4029 ft | 185 kts | 194° |
| 2026-05-05 01:03 | 28.79699 | -81.27378 | 4038 ft | 186 kts | 194° |
| 2026-05-05 01:03 | 28.78589 | -81.28101 | 4024 ft | 188 kts | 228° |
| 2026-05-05 01:03 | 28.77830 | -81.29311 | 4017 ft | 188 kts | 236° |
| 2026-05-05 01:03 | 28.77155 | -81.30577 | 4018 ft | 187 kts | 238° |
| 2026-05-05 01:04 | 28.76503 | -81.31863 | 4019 ft | 187 kts | 239° |
| 2026-05-05 01:04 | 28.75220 | -81.34470 | 3814 ft | 191 kts | 240° |
| 2026-05-05 01:04 | 28.74575 | -81.35813 | 3644 ft | 194 kts | 240° |
| 2026-05-05 01:05 | 28.73926 | -81.37176 | 3488 ft | 197 kts | 240° |
| 2026-05-05 01:05 | 28.73277 | -81.38559 | 3316 ft | 198 kts | 240° |
| 2026-05-05 01:05 | 28.72628 | -81.39956 | 3170 ft | 200 kts | 240° |
| 2026-05-05 01:05 | 28.71993 | -81.41319 | 3057 ft | 194 kts | 240° |
| 2026-05-05 01:06 | 28.71370 | -81.42659 | 3032 ft | 191 kts | 240° |
| 2026-05-05 01:06 | 28.70741 | -81.44008 | 3052 ft | 194 kts | 240° |
| 2026-05-05 01:06 | 28.70104 | -81.45379 | 3031 ft | 197 kts | 240° |
| 2026-05-05 01:06 | 28.69471 | -81.46761 | 3016 ft | 196 kts | 240° |
| 2026-05-05 01:07 | 28.68843 | -81.48138 | 3005 ft | 195 kts | 240° |
| 2026-05-05 01:07 | 28.68194 | -81.49490 | 3012 ft | 192 kts | 231° |
| 2026-05-05 01:07 | 28.67139 | -81.50298 | 2933 ft | 183 kts | 190° |
| 2026-05-05 01:07 | 28.65892 | -81.50525 | 2819 ft | 181 kts | 182° |
| 2026-05-05 01:08 | 28.64644 | -81.50616 | 2688 ft | 179 kts | 178° |
| 2026-05-05 01:08 | 28.63398 | -81.50666 | 2580 ft | 179 kts | 176° |
| 2026-05-05 01:08 | 28.62157 | -81.50708 | 2471 ft | 178 kts | 176° |
| 2026-05-05 01:08 | 28.60927 | -81.50748 | 2332 ft | 176 kts | 176° |
| 2026-05-05 01:09 | 28.59696 | -81.50784 | 2229 ft | 177 kts | 176° |
| 2026-05-05 01:09 | 28.58466 | -81.50836 | 2105 ft | 176 kts | 176° |
| 2026-05-05 01:09 | 28.57260 | -81.50883 | 2060 ft | 171 kts | 176° |
| 2026-05-05 01:09 | 28.56082 | -81.50904 | 2041 ft | 167 kts | 172° |
| 2026-05-05 01:10 | 28.54940 | -81.50824 | 2037 ft | 162 kts | 167° |
| 2026-05-05 01:10 | 28.53850 | -81.50573 | 2028 ft | 158 kts | 157° |
| 2026-05-05 01:10 | 28.52843 | -81.50125 | 1999 ft | 153 kts | 149° |
| 2026-05-05 01:10 | 28.51901 | -81.49597 | 2009 ft | 149 kts | 147° |
| 2026-05-05 01:11 | 28.51005 | -81.49025 | 2032 ft | 147 kts | 143° |
| 2026-05-05 01:11 | 28.50145 | -81.48380 | 2047 ft | 149 kts | 141° |
| 2026-05-05 01:11 | 28.49373 | -81.47605 | 2031 ft | 148 kts | 128° |
| 2026-05-05 01:11 | 28.48757 | -81.46682 | 2023 ft | 145 kts | 108° |
| 2026-05-05 01:12 | 28.48879 | -81.45602 | 2007 ft | 143 kts | 63° |
| 2026-05-05 01:12 | 28.49406 | -81.44658 | 2008 ft | 138 kts | 60° |
| 2026-05-05 01:12 | 28.49938 | -81.43782 | 2002 ft | 132 kts | 59° |
| 2026-05-05 01:12 | 28.50457 | -81.42918 | 1870 ft | 133 kts | 60° |
| 2026-05-05 01:13 | 28.50951 | -81.42056 | 1758 ft | 128 kts | 62° |
| 2026-05-05 01:13 | 28.51407 | -81.41213 | 1546 ft | 125 kts | 63° |
| 2026-05-05 01:13 | 28.51807 | -81.40370 | 1283 ft | 117 kts | 65° |
| 2026-05-05 01:13 | 28.52139 | -81.39562 | 1152 ft | 106 kts | 68° |
| 2026-05-05 01:14 | 28.52413 | -81.38851 | 978 ft | 95 kts | 70° |
| 2026-05-05 01:14 | 28.52658 | -81.38173 | 886 ft | 94 kts | 70° |
| 2026-05-05 01:14 | 28.52914 | -81.37480 | 796 ft | 94 kts | 68° |
| 2026-05-05 01:14 | 28.53177 | -81.36803 | 637 ft | 93 kts | 66° |
| 2026-05-05 01:15 | 28.53434 | -81.36151 | 511 ft | 88 kts | 69° |
| 2026-05-05 01:15 | 28.53680 | -81.35508 | 374 ft | 90 kts | 69° |
| 2026-05-05 01:15 | 28.53920 | -81.34868 | 282 ft | 86 kts | 70° |
| 2026-05-05 01:15 | 28.54160 | -81.34245 | 196 ft | 85 kts | 69° |
| 2026-05-05 01:16 | 28.54400 | -81.33603 | 313 ft | 89 kts | 69° |
| 2026-05-05 01:16 | 28.54650 | -81.32973 | 550 ft | 87 kts | 67° |
| 2026-05-05 01:16 | 28.54898 | -81.32343 | 886 ft | 87 kts | 70° |
| 2026-05-05 01:16 | 28.55146 | -81.31682 | 1107 ft | 98 kts | 69° |
| 2026-05-05 01:17 | 28.55585 | -81.31063 | 1173 ft | 107 kts | 36° |
| 2026-05-05 01:17 | 28.56337 | -81.30932 | 1302 ft | 117 kts | 357° |
| 2026-05-05 01:17 | 28.57127 | -81.31254 | 1329 ft | 130 kts | 337° |
| 2026-05-05 01:17 | 28.57871 | -81.31834 | 1302 ft | 131 kts | 311° |
| 2026-05-05 01:18 | 28.58120 | -81.32814 | 1186 ft | 136 kts | 262° |
| 2026-05-05 01:18 | 28.57756 | -81.33819 | 945 ft | 133 kts | 238° |
| 2026-05-05 01:18 | 28.57335 | -81.34620 | 758 ft | 106 kts | 230° |
| 2026-05-05 01:18 | 28.56794 | -81.35155 | 572 ft | 101 kts | 202° |
| 2026-05-05 01:19 | 28.56134 | -81.35349 | 497 ft | 96 kts | 176° |
| 2026-05-05 01:19 | 28.55467 | -81.35312 | 468 ft | 96 kts | 165° |
| 2026-05-05 01:19 | 28.54796 | -81.35218 | 415 ft | 97 kts | 166° |
| 2026-05-05 01:19 | 28.54190 | -81.34983 | 342 ft | 86 kts | 128° |
| 2026-05-05 01:20 | 28.54152 | -81.34331 | 221 ft | 93 kts | 74° |
| 2026-05-05 01:20 | 28.54382 | -81.33667 | 113 ft | 84 kts | 69° |
| 2026-05-05 01:20 | 28.54550 | -81.33231 | 113 ft | 34 kts | 64° |
| 2026-05-05 01:20 | 28.54648 | -81.33148 | 114 ft | 14 kts | 352° |
| 2026-05-05 01:21 | 28.54673 | -81.33153 | 113 ft | 0 kts | 353° |
| 2026-05-05 01:21 | 28.54717 | -81.33181 | 112 ft | 14 kts | 285° |
| 2026-05-05 01:22 | 28.54710 | -81.33324 | 111 ft | 22 kts | 265° |
| 2026-05-05 01:22 | 28.54694 | -81.33496 | 110 ft | 15 kts | 263° |
| 2026-05-05 01:22 | 28.54682 | -81.33614 | 111 ft | 12 kts | 245° |
| 2026-05-05 01:22 | 28.54676 | -81.33635 | 111 ft | 3 kts | 313° |
| 2026-05-05 01:23 | 28.54740 | -81.33678 | 111 ft | 12 kts | 301° |
| 2026-05-05 01:23 | 28.54808 | -81.33773 | 111 ft | 18 kts | 320° |
| 2026-05-05 01:23 | 28.54836 | -81.33806 | 112 ft | 0 kts | 291° |